Time;durP1;ratioP1;P1;durP2;ratioP2;P2;SDS_P1;SDS_P2;PMS_P1;PMS_P2;Temp;Humidity;BMP_temperature;BMP_pressure;BME280_temperature;BME280_humidity;BME280_pressure;Samples;Min_cycle;Max_cycle;Signal;HPM_P1;HPM_P2
2022/09/24 00:01:17;;;;;;;24.27;16.08;;;205.60;2252.80;;;;;;5038804;28;20128;-82
2022/09/24 00:03:49;;;;;;;23.50;15.70;;;205.60;2252.80;;;;;;5039009;28;20565;-81
2022/09/24 00:06:19;;;;;;;24.23;15.77;;;205.70;2252.80;;;;;;5056974;28;20540;-82
2022/09/24 00:08:49;;;;;;;28.65;17.20;;;230.40;2252.80;;;;;;5056416;28;20040;-81
2022/09/24 00:11:18;;;;;;;28.60;20.70;;;230.50;2252.80;;;;;;5056846;28;20033;-80
2022/09/24 00:13:44;;;;;;;34.10;21.48;;;230.60;2252.80;;;;;;5038736;28;20036;-84
2022/09/24 00:16:12;;;;;;;27.52;17.00;;;205.60;2252.80;;;;;;5038751;28;20029;-84
2022/09/24 00:18:39;;;;;;;22.02;14.20;;;205.70;2252.80;;;;;;5038805;28;20025;-85
2022/09/24 00:21:34;;;;;;;18.70;13.15;;;205.50;2252.80;;;;;;5038516;28;20036;-85
2022/09/24 00:24:03;;;;;;;29.88;16.63;;;230.40;2252.80;;;;;;5054074;28;20039;-83
2022/09/24 00:29:17;;;;;;;34.70;21.88;;;205.70;2252.80;;;;;;5055405;28;20501;-83
2022/09/24 00:31:43;;;;;;;38.20;24.50;;;205.60;2252.80;;;;;;5038414;28;20534;-84
2022/09/24 00:34:09;;;;;;;26.20;17.33;;;205.70;2252.80;;;;;;5056111;28;20107;-84
2022/09/24 00:36:36;;;;;;;18.13;13.73;;;205.70;2252.80;;;;;;5055927;28;20028;-82
2022/09/24 00:39:03;;;;;;;15.25;12.10;;;205.60;2252.80;;;;;;5037202;28;20091;-82
2022/09/24 00:41:32;;;;;;;17.58;12.02;;;205.30;2252.80;;;;;;5036815;28;20393;-85
2022/09/24 00:43:59;;;;;;;17.70;11.30;;;205.20;2252.80;;;;;;5037786;28;20049;-84
2022/09/24 00:46:31;;;;;;;17.70;12.57;;;205.30;2252.80;;;;;;5056015;28;20032;-84
2022/09/24 00:49:23;;;;;;;19.77;13.50;;;205.20;2252.80;;;;;;5055586;28;20082;-84
2022/09/24 00:51:51;;;;;;;21.85;16.38;;;205.30;2252.80;;;;;;5056399;28;20028;-84
2022/09/24 00:54:23;;;;;;;15.82;12.45;;;205.20;2252.80;;;;;;5038199;28;20385;-82
2022/09/24 00:56:51;;;;;;;15.13;11.98;;;205.10;2252.80;;;;;;5055730;28;20021;-85
2022/09/24 00:59:21;;;;;;;16.55;11.52;;;205.20;2252.80;;;;;;5036570;28;20079;-84
2022/09/24 01:01:49;;;;;;;16.30;12.15;;;205.40;2252.80;;;;;;5038182;28;20037;-81
2022/09/24 01:04:21;;;;;;;16.33;12.65;;;205.40;2252.80;;;;;;5055465;28;20101;-84
2022/09/24 01:06:50;;;;;;;16.15;11.85;;;205.30;2252.80;;;;;;5037451;28;20033;-83
2022/09/24 01:09:19;;;;;;;20.63;11.52;;;205.40;2252.80;;;;;;5037925;28;20028;-81
2022/09/24 01:12:13;;;;;;;19.17;11.15;;;205.60;2252.80;;;;;;5054923;28;20035;-82
2022/09/24 01:15:07;;;;;;;15.10;11.15;;;205.20;2252.80;;;;;;5038030;28;20021;-81
2022/09/24 01:17:45;;;;;;;12.23;10.35;;;205.00;2252.80;;;;;;5037548;28;20025;-82
2022/09/24 01:20:38;;;;;;;14.75;10.77;;;204.90;2252.80;;;;;;5055676;28;20025;-84
2022/09/24 01:23:31;;;;;;;14.43;10.80;;;180.10;2252.80;;;;;;5037840;28;20044;-83
2022/09/24 01:26:31;;;;;;;17.40;13.07;;;204.90;2252.80;;;;;;5055377;28;20047;-83
2022/09/24 01:29:19;;;;;;;18.50;12.93;;;205.00;2252.80;;;;;;5037563;28;20025;-81
2022/09/24 01:32:00;;;;;;;18.40;12.80;;;180.10;2252.80;;;;;;5037383;28;20091;-82
2022/09/24 01:34:31;;;;;;;16.13;11.65;;;204.80;2252.80;;;;;;5037239;28;20462;-84
2022/09/24 01:36:58;;;;;;;20.63;14.85;;;204.90;2252.80;;;;;;5034144;28;20116;-83
2022/09/24 01:39:27;;;;;;;23.48;16.52;;;205.00;2252.80;;;;;;5033163;28;20033;-81
2022/09/24 01:41:53;;;;;;;23.88;14.90;;;205.20;2252.80;;;;;;5033670;28;20033;-82
2022/09/24 01:44:19;;;;;;;19.35;15.13;;;205.20;2252.80;;;;;;5033872;28;20097;-84
2022/09/24 01:46:45;;;;;;;20.40;14.55;;;205.30;2252.80;;;;;;5033679;28;20037;-83
2022/09/24 01:49:11;;;;;;;22.67;12.93;;;205.20;2252.80;;;;;;5033914;28;20036;-83
2022/09/24 01:51:43;;;;;;;20.00;11.63;;;205.20;2252.80;;;;;;5034129;28;20032;-81
2022/09/24 01:54:50;;;;;;;16.83;11.63;;;205.20;2252.80;;;;;;5035168;28;20057;-81
2022/09/24 01:57:19;;;;;;;16.48;11.68;;;205.30;2252.80;;;;;;5012607;28;20601;-82
2022/09/24 02:00:05;;;;;;;16.13;11.63;;;205.30;2252.80;;;;;;5034737;28;20053;-82
2022/09/24 02:02:57;;;;;;;15.40;10.13;;;205.00;2252.80;;;;;;5033810;28;20034;-83
2022/09/24 02:05:46;;;;;;;15.35;11.23;;;205.00;2252.80;;;;;;5032845;28;20037;-84
2022/09/24 02:08:21;;;;;;;14.15;10.00;;;179.80;2252.80;;;;;;5043646;28;20470;-80
2022/09/24 02:11:00;;;;;;;12.90;9.65;;;179.60;2252.80;;;;;;5036266;28;20044;-81
2022/09/24 02:13:31;;;;;;;17.70;11.10;;;179.70;2252.80;;;;;;5068277;28;20082;-83
2022/09/24 02:16:01;;;;;;;13.18;10.00;;;179.60;2252.80;;;;;;5036663;28;20021;-82
2022/09/24 02:18:32;;;;;;;15.77;10.85;;;179.80;2252.80;;;;;;5036231;28;20428;-80
2022/09/24 02:21:02;;;;;;;15.07;9.75;;;179.90;2252.80;;;;;;5054264;28;20029;-85
2022/09/24 02:23:30;;;;;;;18.10;11.73;;;180.00;2252.80;;;;;;5053242;28;20021;-82
2022/09/24 02:26:00;;;;;;;15.25;11.48;;;179.90;2252.80;;;;;;5053262;28;20501;-84
2022/09/24 02:28:26;;;;;;;15.98;11.23;;;180.10;2252.80;;;;;;5053352;28;20391;-84
2022/09/24 02:31:07;;;;;;;17.27;12.27;;;204.90;2252.80;;;;;;5035639;28;20035;-84
2022/09/24 02:36:21;;;;;;;18.88;10.60;;;204.90;2252.80;;;;;;5053141;28;20481;-85
2022/09/24 02:38:47;;;;;;;15.02;10.55;;;180.00;2252.80;;;;;;5036102;28;20029;-83
2022/09/24 02:41:13;;;;;;;18.77;11.30;;;179.80;2252.80;;;;;;5034486;28;20028;-85
2022/09/24 02:43:39;;;;;;;14.48;10.75;;;179.40;2252.80;;;;;;5053610;28;20052;-83
2022/09/24 02:46:09;;;;;;;14.95;10.15;;;179.20;2252.80;;;;;;5054153;28;20030;-85
2022/09/24 02:48:36;;;;;;;19.40;11.38;;;;;;;;;;5035755;28;20120;-85
2022/09/24 02:51:03;;;;;;;19.40;11.32;;;179.80;2252.80;;;;;;5053937;28;20478;-84
2022/09/24 02:53:32;;;;;;;18.17;11.20;;;179.60;2252.80;;;;;;5036117;28;20025;-85
2022/09/24 02:55:59;;;;;;;15.35;11.07;;;179.70;2252.80;;;;;;5035774;28;20029;-85
2022/09/24 02:58:26;;;;;;;18.02;11.60;;;154.50;2252.80;;;;;;5035950;28;20051;-83
2022/09/24 03:00:53;;;;;;;17.90;11.95;;;179.40;2252.80;;;;;;5035968;28;20033;-83
2022/09/24 03:03:21;;;;;;;19.40;10.80;;;179.40;2252.80;;;;;;5053478;28;20023;-84
2022/09/24 03:05:48;;;;;;;13.68;9.48;;;204.90;2252.80;;;;;;5036016;28;20029;-83
2022/09/24 03:08:14;;;;;;;12.45;8.90;;;179.70;2252.80;;;;;;5036103;28;20474;-85
2022/09/24 03:10:40;;;;;;;19.05;11.18;;;179.70;2252.80;;;;;;5035832;28;20111;-85
2022/09/24 03:13:06;;;;;;;17.75;10.93;;;179.40;2252.80;;;;;;5035918;28;20116;-85
2022/09/24 03:15:31;;;;;;;19.77;12.18;;;179.50;2252.80;;;;;;5035752;28;20477;-85
2022/09/24 03:17:57;;;;;;;17.88;11.77;;;179.40;2252.80;;;;;;5035674;28;20112;-81
2022/09/24 03:20:23;;;;;;;17.80;11.25;;;179.60;2252.80;;;;;;5035709;28;20025;-84
2022/09/24 03:22:50;;;;;;;18.35;10.75;;;179.50;2252.80;;;;;;5036711;28;20025;-85
2022/09/24 03:25:17;;;;;;;16.80;11.35;;;179.40;2252.80;;;;;;5040038;28;20021;-85
2022/09/24 03:27:43;;;;;;;15.77;9.98;;;179.50;2252.80;;;;;;5039830;28;20025;-85
2022/09/24 03:32:53;;;;;;;16.33;11.27;;;179.60;2252.80;;;;;;5057831;28;20032;-84
2022/09/24 03:35:20;;;;;;;18.83;12.68;;;179.70;2252.80;;;;;;5057935;28;20032;-84
2022/09/24 03:37:46;;;;;;;20.23;13.75;;;179.50;2252.80;;;;;;5039734;28;20025;-83
2022/09/24 03:40:12;;;;;;;17.90;12.63;;;179.50;2252.80;;;;;;5057299;28;20111;-85
2022/09/24 03:42:38;;;;;;;21.42;13.23;;;179.20;2252.80;;;;;;5057023;28;20049;-85
2022/09/24 03:45:05;;;;;;;23.10;12.13;;;154.50;2252.80;;;;;;5057650;28;20396;-86
2022/09/24 03:47:31;;;;;;;18.52;12.18;;;179.40;2252.80;;;;;;5039509;28;20074;-84
2022/09/24 03:49:57;;;;;;;17.60;12.63;;;179.50;2252.80;;;;;;5039571;28;20025;-85
2022/09/24 03:52:25;;;;;;;18.80;12.20;;;179.50;2252.80;;;;;;5039203;28;20417;-84
2022/09/24 03:54:51;;;;;;;25.65;20.63;;;179.40;2252.80;;;;;;5057317;28;20449;-83
2022/09/24 03:57:17;;;;;;;16.83;11.50;;;154.50;2252.80;;;;;;5039408;28;20025;-84
2022/09/24 03:59:44;;;;;;;17.15;11.48;;;154.20;2252.80;;;;;;5038975;28;20055;-82
2022/09/24 04:02:10;;;;;;;17.30;12.63;;;154.50;2252.80;;;;;;5039107;28;20025;-85
2022/09/24 04:04:37;;;;;;;17.92;10.82;;;179.30;2252.80;;;;;;5056742;28;20371;-81
2022/09/24 04:07:03;;;;;;;17.98;12.52;;;179.60;2252.80;;;;;;5038595;28;20032;-86
2022/09/24 04:09:29;;;;;;;20.92;14.35;;;179.50;2252.80;;;;;;5036505;28;20029;-84
2022/09/24 04:11:56;;;;;;;21.42;14.90;;;179.70;2252.80;;;;;;5044233;28;20032;-81
2022/09/24 04:14:22;;;;;;;17.67;12.85;;;179.80;2252.80;;;;;;5063498;28;20055;-83
2022/09/24 04:16:48;;;;;;;23.42;14.02;;;179.80;2252.80;;;;;;5062088;28;20013;-83
2022/09/24 04:19:17;;;;;;;18.27;12.77;;;179.60;2252.80;;;;;;5056891;28;20025;-83
2022/09/24 04:21:44;;;;;;;24.92;14.90;;;154.50;2252.80;;;;;;5039006;28;20035;-84
2022/09/24 04:24:11;;;;;;;21.98;13.90;;;154.20;2252.80;;;;;;5056636;28;20104;-82
2022/09/24 04:26:37;;;;;;;23.33;14.73;;;154.30;2252.80;;;;;;5056714;28;20025;-82
2022/09/24 04:29:04;;;;;;;21.20;13.63;;;154.50;2252.80;;;;;;5038678;28;20025;-84
2022/09/24 04:31:32;;;;;;;23.42;13.43;;;179.20;2252.80;;;;;;5056536;28;20059;-82
2022/09/24 04:33:58;;;;;;;18.63;13.35;;;179.30;2252.80;;;;;;5038099;28;20029;-83
2022/09/24 04:36:24;;;;;;;18.63;12.60;;;179.30;2252.80;;;;;;5038525;28;20455;-83
2022/09/24 04:38:50;;;;;;;17.92;12.88;;;179.20;2252.80;;;;;;5056397;28;20382;-83
2022/09/24 04:41:16;;;;;;;26.13;16.90;;;179.30;2252.80;;;;;;5038280;28;20028;-84
2022/09/24 04:43:42;;;;;;;22.23;12.98;;;154.50;2252.80;;;;;;5056116;28;20041;-81
2022/09/24 04:46:08;;;;;;;21.33;14.02;;;154.40;2252.80;;;;;;5056005;28;20028;-84
2022/09/24 04:48:37;;;;;;;18.10;13.07;;;154.30;2252.80;;;;;;5038163;28;20036;-83
2022/09/24 04:51:07;;;;;;;20.20;12.88;;;154.00;2252.80;;;;;;5038305;28;20029;-84
2022/09/24 04:53:35;;;;;;;24.05;12.38;;;154.30;2252.80;;;;;;5038222;28;20025;-83
2022/09/24 04:56:05;;;;;;;25.38;13.70;;;179.20;2252.80;;;;;;5038058;28;20029;-83
2022/09/24 04:58:31;;;;;;;21.08;14.20;;;154.50;2252.80;;;;;;5038172;28;20025;-83
2022/09/24 05:00:56;;;;;;;26.67;14.50;;;154.40;2252.80;;;;;;5037429;28;20147;-82
2022/09/24 05:03:22;;;;;;;19.25;13.65;;;154.50;2252.80;;;;;;5038085;28;20059;-81
2022/09/24 05:05:51;;;;;;;25.10;15.95;;;154.50;2252.80;;;;;;5038001;28;20025;-82
2022/09/24 05:08:17;;;;;;;24.08;15.73;;;154.30;2252.80;;;;;;5037800;28;20082;-84
2022/09/24 05:10:43;;;;;;;25.27;16.45;;;154.40;2252.80;;;;;;5055964;28;20033;-84
2022/09/24 05:13:09;;;;;;;26.17;15.65;;;154.20;2252.80;;;;;;5037743;28;20032;-82
2022/09/24 05:15:34;;;;;;;24.58;16.67;;;154.40;2252.80;;;;;;5037535;28;20440;-82
2022/09/24 05:18:00;;;;;;;29.85;16.58;;;154.20;2252.80;;;;;;5037835;28;20431;-83
2022/09/24 05:20:26;;;;;;;27.95;18.05;;;154.10;2252.80;;;;;;5037678;28;20376;-83
2022/09/24 05:22:52;;;;;;;31.27;17.05;;;154.20;2252.80;;;;;;5055583;28;20033;-84
2022/09/24 05:25:20;;;;;;;31.30;18.70;;;154.00;2252.80;;;;;;5055613;28;20051;-84
2022/09/24 05:27:46;;;;;;;28.63;18.90;;;153.80;2252.80;;;;;;5037621;28;20021;-83
2022/09/24 05:30:13;;;;;;;34.40;18.98;;;153.90;2252.80;;;;;;5037225;28;20476;-83
2022/09/24 05:32:39;;;;;;;34.63;18.38;;;153.90;2252.80;;;;;;5037529;28;20124;-85
2022/09/24 05:35:07;;;;;;;30.98;17.60;;;154.00;2252.80;;;;;;5036461;28;20029;-84
2022/09/24 05:37:34;;;;;;;34.88;18.48;;;154.00;2252.80;;;;;;5055031;28;20021;-82
2022/09/24 05:40:46;;;;;;;34.47;18.27;;;154.10;2252.80;;;;;;5036317;28;20036;-86
2022/09/24 05:42:45;;;;;;;34.20;18.05;;;154.10;2252.80;;;;;;5054329;28;20044;-85
2022/09/24 05:45:16;;;;;;;37.40;18.58;;;154.40;2252.80;;;;;;5036684;28;20025;-85
2022/09/24 05:47:44;;;;;;;41.42;22.08;;;154.20;2252.80;;;;;;5036983;28;20025;-83
2022/09/24 05:50:10;;;;;;;37.38;21.50;;;154.10;2252.80;;;;;;5037037;28;20086;-86
2022/09/24 05:52:37;;;;;;;41.53;23.50;;;154.00;2252.80;;;;;;5037129;28;20035;-82
2022/09/24 05:55:03;;;;;;;40.03;21.63;;;153.90;2252.80;;;;;;5037183;28;20025;-82
2022/09/24 05:57:29;;;;;;;44.13;22.98;;;153.90;2252.80;;;;;;5036747;28;20025;-82
2022/09/24 05:59:55;;;;;;;33.97;19.08;;;154.20;2252.80;;;;;;5054587;28;20470;-84
2022/09/24 06:02:20;;;;;;;28.95;17.13;;;154.10;2252.80;;;;;;5037077;28;20118;-83
2022/09/24 06:04:46;;;;;;;34.15;18.65;;;154.10;2252.80;;;;;;5054532;28;20029;-84
2022/09/24 06:07:12;;;;;;;29.83;17.48;;;154.40;2252.80;;;;;;5054824;28;20098;-84
2022/09/24 06:09:38;;;;;;;29.10;17.88;;;179.20;2252.80;;;;;;5036865;28;20035;-85
2022/09/24 06:12:06;;;;;;;33.90;18.13;;;154.50;2252.80;;;;;;5036581;28;20036;-80
2022/09/24 06:14:32;;;;;;;30.63;17.23;;;179.30;2252.80;;;;;;5036679;28;20462;-84
2022/09/24 06:16:58;;;;;;;31.33;17.77;;;154.50;2252.80;;;;;;5036573;28;20090;-83
2022/09/24 06:19:24;;;;;;;30.35;17.20;;;179.20;2252.80;;;;;;5036459;28;20036;-86
2022/09/24 06:21:49;;;;;;;27.48;17.48;;;179.20;2252.80;;;;;;5036733;28;20128;-83
2022/09/24 06:24:15;;;;;;;28.48;18.38;;;179.40;2252.80;;;;;;5036552;28;20060;-84
2022/09/24 06:26:41;;;;;;;27.77;19.17;;;179.40;2252.80;;;;;;5036489;28;20025;-86
2022/09/24 06:29:07;;;;;;;26.98;18.45;;;179.50;2252.80;;;;;;5054194;28;20029;-84
2022/09/24 06:31:33;;;;;;;34.72;21.85;;;179.50;2252.80;;;;;;5036539;28;20040;-84
2022/09/24 06:34:01;;;;;;;32.35;21.15;;;179.50;2252.80;;;;;;5036052;28;20466;-84
2022/09/24 06:36:28;;;;;;;33.00;22.40;;;179.60;2252.80;;;;;;5036605;28;20025;-86
2022/09/24 06:38:53;;;;;;;32.88;22.02;;;179.70;2252.80;;;;;;5036257;28;20106;-85
2022/09/24 06:41:19;;;;;;;28.65;20.95;;;179.80;2252.80;;;;;;5051186;28;20071;-82
2022/09/24 06:43:45;;;;;;;29.65;20.23;;;179.90;2252.80;;;;;;5055158;28;20052;-83
2022/09/24 06:46:13;;;;;;;28.05;19.77;;;180.10;2252.80;;;;;;5073405;28;20413;-84
2022/09/24 06:48:38;;;;;;;33.55;22.33;;;204.90;2252.80;;;;;;5056163;28;20024;-84
2022/09/24 06:51:04;;;;;;;28.17;18.15;;;205.20;2252.80;;;;;;5056178;28;20085;-83
2022/09/24 06:53:30;;;;;;;27.52;18.80;;;205.30;2252.80;;;;;;5073783;28;20024;-83
2022/09/24 06:56:02;;;;;;;24.63;16.30;;;205.40;2252.80;;;;;;5056067;28;20480;-82
2022/09/24 06:58:28;;;;;;;20.80;14.27;;;205.50;2252.80;;;;;;5073903;28;20017;-84
2022/09/24 07:01:01;;;;;;;16.55;13.27;;;205.60;2252.80;;;;;;5055786;28;20131;-86
2022/09/24 07:03:29;;;;;;;20.73;15.32;;;205.70;2252.80;;;;;;5056059;28;20029;-86
2022/09/24 07:05:58;;;;;;;22.00;14.60;;;205.70;2252.80;;;;;;5047685;28;20083;-84
2022/09/24 07:08:24;;;;;;;16.88;13.52;;;230.60;2252.80;;;;;;5036291;28;20049;-86
2022/09/24 07:10:51;;;;;;;19.55;14.05;;;230.60;2252.80;;;;;;5035383;28;20482;-84
2022/09/24 07:13:17;;;;;;;21.42;13.57;;;230.60;2252.80;;;;;;5036076;28;20025;-87
2022/09/24 07:15:44;;;;;;;22.67;15.20;;;205.50;2252.80;;;;;;5036461;28;20021;-87
2022/09/24 07:18:10;;;;;;;21.27;14.75;;;230.90;2252.80;;;;;;5036231;28;20056;-83
2022/09/24 07:20:36;;;;;;;23.40;18.02;;;231.10;2252.80;;;;;;5053129;28;20029;-80
2022/09/24 07:23:12;;;;;;;20.63;15.65;;;231.10;2252.80;;;;;;5035696;28;20382;-78
2022/09/24 07:25:38;;;;;;;20.98;14.75;;;231.20;2252.80;;;;;;5035858;28;20477;-81
2022/09/24 07:28:09;;;;;;;23.13;16.75;;;256.00;2252.80;;;;;;5035406;28;20489;-80
2022/09/24 07:30:35;;;;;;;17.42;12.90;;;256.10;2252.80;;;;;;5035719;28;20421;-82
2022/09/24 07:33:01;;;;;;;16.85;13.63;;;256.20;2252.80;;;;;;5035634;28;20470;-82
2022/09/24 07:35:28;;;;;;;22.42;14.20;;;256.30;2252.80;;;;;;5035366;28;20025;-81
2022/09/24 07:38:02;;;;;;;15.70;11.93;;;256.50;2252.80;;;;;;5035492;28;20056;-83
2022/09/24 07:40:28;;;;;;;15.25;12.25;;;256.60;2252.80;;;;;;5035548;28;20032;-83
2022/09/24 07:42:55;;;;;;;15.98;12.38;;;256.80;2252.80;;;;;;5034835;28;20130;-84
2022/09/24 07:45:22;;;;;;;17.30;12.13;;;256.90;2252.80;;;;;;5035611;28;20540;-82
2022/09/24 07:47:59;;;;;;;17.92;10.85;;;281.70;2278.40;;;;;;5035554;28;20029;-81
2022/09/24 07:50:27;;;;;;;17.48;11.23;;;281.90;2278.40;;;;;;5035277;28;20028;-81
2022/09/24 07:52:54;;;;;;;15.52;10.18;;;282.00;2278.40;;;;;;5035057;28;20033;-81
2022/09/24 07:55:20;;;;;;;13.95;10.73;;;282.10;2278.40;;;;;;5035122;28;20107;-81
2022/09/24 07:57:50;;;;;;;14.40;11.73;;;282.10;2278.40;;;;;;5035230;28;20433;-81
2022/09/24 08:00:18;;;;;;;19.05;14.38;;;282.20;2278.40;;;;;;5035381;28;20478;-84
2022/09/24 08:02:45;;;;;;;15.75;12.07;;;282.30;2278.40;;;;;;5035024;28;20091;-82
2022/09/24 08:05:11;;;;;;;39.67;25.15;;;282.30;2278.40;;;;;;5035467;28;20025;-82
2022/09/24 08:07:37;;;;;;;19.48;13.60;;;307.60;2304.00;;;;;;5035426;28;20056;-85
2022/09/24 08:10:04;;;;;;;15.02;10.68;;;307.30;2304.00;;;;;;5041353;28;20462;-85
2022/09/24 08:12:30;;;;;;;13.52;9.98;;;307.50;2304.00;;;;;;5042454;28;20057;-84
2022/09/24 08:14:56;;;;;;;12.75;10.02;;;307.60;2304.00;;;;;;5040789;28;20080;-85
2022/09/24 08:17:22;;;;;;;11.07;8.38;;;307.80;2304.00;;;;;;5038892;28;20025;-81
2022/09/24 08:19:47;;;;;;;9.90;7.30;;;308.00;2304.00;;;;;;5038687;28;20025;-81
2022/09/24 08:22:13;;;;;;;10.13;7.72;;;308.00;2304.00;;;;;;5038618;28;20036;-78
2022/09/24 08:24:40;;;;;;;9.32;7.38;;;308.10;2304.00;;;;;;5038541;28;20393;-81
2022/09/24 08:27:07;;;;;;;8.90;7.53;;;332.80;2329.60;;;;;;5071862;28;20032;-78
2022/09/24 08:29:33;;;;;;;12.45;9.07;;;332.80;2329.60;;;;;;5071542;28;20032;-78
2022/09/24 08:32:00;;;;;;;12.40;8.65;;;332.90;2329.60;;;;;;5055977;28;20493;-76
2022/09/24 08:34:25;;;;;;;13.23;9.27;;;333.20;2329.60;;;;;;5071694;28;20525;-80
2022/09/24 08:36:51;;;;;;;11.63;8.93;;;333.10;2329.60;;;;;;5038340;28;20020;-81
2022/09/24 08:39:17;;;;;;;10.07;7.70;;;333.20;2329.60;;;;;;5071384;28;20078;-81
2022/09/24 08:41:56;;;;;;;9.75;7.65;;;333.30;2329.60;;;;;;5038071;28;20094;-81
2022/09/24 08:47:38;;;;;;;10.63;7.28;;;333.60;2329.60;;;;;;5056326;28;20095;-83
2022/09/24 08:50:30;;;;;;;13.00;9.45;;;333.30;2329.60;;;;;;5035230;28;20035;-80
2022/09/24 08:53:08;;;;;;;10.10;6.68;;;358.40;2329.60;;;;;;5038317;28;20079;-82
2022/09/24 08:55:41;;;;;;;14.20;12.65;;;358.50;2329.60;;;;;;5055163;28;20108;-83
2022/09/24 08:58:39;;;;;;;9.85;7.78;;;358.70;2329.60;;;;;;5038023;28;20029;-83
2022/09/24 09:01:11;;;;;;;9.52;8.55;;;358.80;2329.60;;;;;;5035075;28;20449;-82
2022/09/24 09:04:04;;;;;;;12.17;10.80;;;358.90;2329.60;;;;;;5054731;28;20029;-85
2022/09/24 09:06:39;;;;;;;10.93;9.73;;;358.90;2329.60;;;;;;5038526;28;20135;-84
2022/09/24 09:09:13;;;;;;;13.40;9.02;;;359.00;2329.60;;;;;;5054935;28;20042;-83
2022/09/24 09:11:41;;;;;;;11.43;7.93;;;359.00;2329.60;;;;;;5038500;28;20119;-83
2022/09/24 09:14:33;;;;;;;11.32;7.72;;;359.10;2329.60;;;;;;5038040;28;20052;-82
2022/09/24 09:17:09;;;;;;;12.48;8.07;;;359.20;2329.60;;;;;;5053812;28;20116;-82
2022/09/24 09:19:38;;;;;;;10.60;6.75;;;359.20;2329.60;;;;;;5037217;28;20102;-82
2022/09/24 09:22:15;;;;;;;12.27;8.43;;;359.30;2329.60;;;;;;5037052;28;20033;-83
2022/09/24 09:24:48;;;;;;;13.02;9.32;;;384.00;2329.60;;;;;;5038744;28;20087;-82
2022/09/24 09:27:15;;;;;;;10.98;7.93;;;384.10;2329.60;;;;;;5056315;28;20040;-83
2022/09/24 09:29:50;;;;;;;12.68;8.07;;;384.40;2329.60;;;;;;5056732;28;20115;-84
2022/09/24 09:32:51;;;;;;;16.38;12.85;;;384.50;2329.60;;;;;;5056807;28;20035;-82
2022/09/24 09:35:31;;;;;;;28.30;23.73;;;384.90;2329.60;;;;;;5048209;28;20021;-83
2022/09/24 09:38:16;;;;;;;12.52;9.25;;;409.70;2355.20;;;;;;5037285;28;20033;-83
2022/09/24 09:41:10;;;;;;;13.68;8.38;;;409.90;2355.20;;;;;;5069691;28;20025;-82
2022/09/24 09:43:37;;;;;;;9.02;7.32;;;410.00;2355.20;;;;;;5033831;28;20057;-84
2022/09/24 09:46:32;;;;;;;11.10;6.43;;;410.00;2355.20;;;;;;5034901;28;20029;-83
2022/09/24 09:49:05;;;;;;;10.90;7.43;;;410.20;2355.20;;;;;;5033006;28;20025;-84
2022/09/24 09:51:43;;;;;;;10.05;6.70;;;410.40;2355.20;;;;;;5017549;28;20046;-83
2022/09/24 09:54:08;;;;;;;10.38;5.97;;;435.20;2355.20;;;;;;5033991;28;20029;-84
2022/09/24 09:56:42;;;;;;;10.98;6.13;;;435.30;2355.20;;;;;;5034587;28;20099;-84
2022/09/24 09:59:10;;;;;;;8.60;7.05;;;435.30;2355.20;;;;;;5033747;28;20022;-84
2022/09/24 10:01:41;;;;;;;10.90;7.97;;;435.60;2355.20;;;;;;5035204;28;20030;-84
2022/09/24 10:04:38;;;;;;;14.70;9.98;;;435.60;2355.20;;;;;;5033821;28;20044;-83
2022/09/24 10:07:06;;;;;;;9.27;7.20;;;435.80;2355.20;;;;;;5019490;28;20372;-84
2022/09/24 10:09:32;;;;;;;8.95;5.88;;;435.90;2355.20;;;;;;5064341;28;20025;-82
2022/09/24 10:12:23;;;;;;;9.68;5.88;;;436.10;2355.20;;;;;;5031989;28;20336;-83
2022/09/24 10:14:59;;;;;;;10.02;6.97;;;;;;;;;;5032735;28;20076;-83
2022/09/24 10:17:37;;;;;;;8.23;6.30;;;460.90;2380.80;;;;;;5049672;28;20094;-83
2022/09/24 10:20:23;;;;;;;7.80;5.53;;;460.90;2380.80;;;;;;5032936;28;20128;-83
2022/09/24 10:22:57;;;;;;;7.85;5.93;;;461.00;2380.80;;;;;;5066356;28;20025;-83
2022/09/24 10:25:26;;;;;;;7.47;5.82;;;461.10;2380.80;;;;;;5033560;28;20030;-83
2022/09/24 10:30:32;;;;;;;12.30;5.72;;;461.40;2380.80;;;;;;5033316;28;20144;-82
2022/09/24 10:31:02;;;;;;;7.28;5.45;;;461.40;2380.80;;;;;;5034475;28;20028;-83
2022/09/24 10:33:40;;;;;;;12.15;6.68;;;461.70;2380.80;;;;;;5033164;28;20021;-84
2022/09/24 10:36:24;;;;;;;13.20;7.18;;;486.50;2380.80;;;;;;5033344;28;20079;-85
2022/09/24 10:39:06;;;;;;;7.22;5.35;;;486.50;2380.80;;;;;;5033240;28;20026;-86
2022/09/24 10:41:32;;;;;;;7.38;5.20;;;486.80;2380.80;;;;;;5066538;28;20036;-84
2022/09/24 10:44:05;;;;;;;8.73;7.28;;;487.10;2380.80;;;;;;5032910;28;20065;-84
2022/09/24 10:46:57;;;;;;;10.05;5.78;;;512.00;2380.80;;;;;;5066514;28;20039;-85
2022/09/24 10:49:51;;;;;;;10.27;6.70;;;487.20;2380.80;;;;;;5066111;28;20025;-84
2022/09/24 10:52:19;;;;;;;10.32;5.60;;;487.30;2380.80;;;;;;5033264;28;20094;-83
2022/09/24 10:54:50;;;;;;;8.50;5.88;;;512.00;2380.80;;;;;;5065957;28;20025;-82
2022/09/24 10:57:53;;;;;;;16.05;7.15;;;512.30;2329.60;;;;;;5033148;28;20025;-83
2022/09/24 11:00:23;;;;;;;9.18;5.57;;;512.90;2304.00;;;;;;5049834;28;20029;-84
2022/09/24 11:03:28;;;;;;;9.38;5.40;;;512.80;2304.00;;;;;;5033022;28;20073;-84
2022/09/24 11:06:13;;;;;;;11.07;6.40;;;538.00;2278.40;;;;;;5029295;28;20033;-84
2022/09/24 11:08:57;;;;;;;9.02;5.30;;;;;;;;;;5066189;28;20025;-85
2022/09/24 11:11:47;;;;;;;9.50;5.63;;;;;;;;;;5049328;28;20029;-81
2022/09/24 11:14:13;;;;;;;7.38;5.10;;;;;;;;;;5030107;28;20036;-81
2022/09/24 11:17:16;;;;;;;10.32;4.90;;;538.50;2227.20;;;;;;5033568;28;20498;-84
2022/09/24 11:20:10;;;;;;;8.38;5.60;;;538.50;2150.40;;;;;;5033431;28;20030;-82
2022/09/24 11:22:47;;;;;;;10.10;7.32;;;563.50;2150.40;;;;;;5090722;28;20072;-79
2022/09/24 11:25:25;;;;;;;8.82;5.90;;;564.00;2124.80;;;;;;5047527;28;20034;-80
2022/09/24 11:28:08;;;;;;;7.18;5.32;;;564.10;2124.80;;;;;;5066442;28;20030;-83
2022/09/24 11:30:59;;;;;;;7.10;4.90;;;588.80;2124.80;;;;;;5033316;28;20037;-83
2022/09/24 11:33:33;;;;;;;11.32;5.40;;;588.80;2150.40;;;;;;5049166;28;20120;-82
2022/09/24 11:36:34;;;;;;;9.35;4.85;;;588.80;1996.80;;;;;;5064158;28;20462;-82
2022/09/24 11:39:30;;;;;;;12.32;5.32;;;588.80;2022.40;;;;;;4992710;28;20129;-86
2022/09/24 11:41:59;;;;;;;10.85;5.80;;;589.30;1996.80;;;;;;5065535;28;20034;-86
2022/09/24 11:44:37;;;;;;;16.77;5.85;;;589.70;1996.80;;;;;;5034172;28;20493;-88
2022/09/24 11:47:17;;;;;;;12.23;4.70;;;614.40;1971.20;;;;;;5051313;28;20025;-85
2022/09/24 11:49:58;;;;;;;10.07;5.85;;;614.70;1920.00;;;;;;5050657;28;20021;-88
2022/09/24 11:52:40;;;;;;;13.27;6.03;;;614.80;1894.40;;;;;;5067638;28;20029;-89
2022/09/24 11:55:15;;;;;;;12.13;6.80;;;614.90;1894.40;;;;;;5032865;28;20075;-86
2022/09/24 11:57:56;;;;;;;9.68;5.93;;;615.10;1920.00;;;;;;5034002;28;20033;-86
2022/09/24 12:00:27;;;;;;;8.63;4.10;;;614.90;1843.20;;;;;;5080633;28;20033;-86
2022/09/24 12:03:05;;;;;;;7.43;4.00;;;614.70;1792.00;;;;;;5056072;28;20044;-86
2022/09/24 12:05:42;;;;;;;10.15;4.40;;;614.70;1817.60;;;;;;5056153;28;20025;-87
2022/09/24 12:08:10;;;;;;;7.53;4.60;;;614.80;1792.00;;;;;;5056538;28;20032;-86
2022/09/24 12:10:42;;;;;;;8.88;3.92;;;589.70;1766.40;;;;;;5089857;28;20474;-87
2022/09/24 12:13:26;;;;;;;5.65;3.85;;;589.70;1766.40;;;;;;5083380;28;20029;-86
2022/09/24 12:16:01;;;;;;;10.15;4.35;;;589.60;1817.60;;;;;;5029355;28;20037;-89
2022/09/24 12:18:55;;;;;;;8.65;4.47;;;589.70;1792.00;;;;;;5036338;28;20049;-88
2022/09/24 12:21:35;;;;;;;6.07;3.75;;;614.60;1792.00;;;;;;5036338;28;20029;-90
2022/09/24 12:24:32;;;;;;;5.90;3.67;;;614.60;1766.40;;;;;;5036624;28;20112;-90
2022/09/24 12:27:06;;;;;;;9.07;3.50;;;614.50;1792.00;;;;;;5048984;28;20453;-90
2022/09/24 12:33:12;;;;;;;9.55;4.03;;;589.40;1817.60;;;;;;5036699;28;20040;-88
2022/09/24 12:35:53;;;;;;;9.88;4.13;;;589.50;1792.00;;;;;;5033290;28;20391;-88
2022/09/24 12:38:35;;;;;;;9.73;4.07;;;589.50;1843.20;;;;;;5036067;28;20421;-82
2022/09/24 12:41:17;;;;;;;6.38;3.85;;;589.60;1792.00;;;;;;5034991;28;20033;-85
2022/09/24 12:43:46;;;;;;;;;;;589.40;1766.40;;;;;;5067875;28;20392;-85
2022/09/24 12:46:20;;;;;;;8.90;4.50;;;589.30;1766.40;;;;;;5051413;28;19905;-87